Time;durP1;ratioP1;P1;durP2;ratioP2;P2;SDS_P1;SDS_P2;PMS_P1;PMS_P2;Temp;Humidity;BMP_temperature;BMP_pressure;BME280_temperature;BME280_humidity;BME280_pressure;Samples;Min_cycle;Max_cycle;Signal;HPM_P1;HPM_P2
2021/03/07 00:00:25;;;;;;;11.85;6.10;;;;;;;1.60;68.57;100990.01;98354;1171;76163;-64
2021/03/07 00:02:47;;;;;;;14.55;6.60;;;;;;;1.60;68.87;100982.02;98308;1168;89377;-76
2021/03/07 00:04:54;;;;;;;10.77;6.17;;;;;;;1.63;69.11;100980.94;98335;1171;82235;-75
2021/03/07 00:07:04;;;;;;;10.07;6.17;;;;;;;1.65;68.72;100981.66;98348;1171;68905;-64
2021/03/07 00:09:10;;;;;;;11.65;6.00;;;;;;;1.65;68.95;100981.66;98333;1168;86398;-63
2021/03/07 00:11:16;;;;;;;14.20;6.40;;;;;;;1.65;68.88;100978.99;98355;1168;75045;-75
2021/03/07 00:13:22;;;;;;;12.30;6.75;;;;;;;1.63;68.65;100983.59;98304;1170;89407;-76
2021/03/07 00:15:28;;;;;;;10.85;6.40;;;;;;;1.65;68.61;100982.51;98325;1172;83268;-65
2021/03/07 00:17:34;;;;;;;10.07;5.60;;;;;;;1.67;68.83;100983.27;98306;1171;69113;-75
2021/03/07 00:19:40;;;;;;;10.55;6.15;;;;;;;1.70;68.83;100980.34;98281;1172;87046;-76
2021/03/07 00:21:46;;;;;;;11.25;6.25;;;;;;;1.70;69.18;100975.02;98319;1170;74462;-62
2021/03/07 00:23:52;;;;;;;12.25;6.75;;;;;;;1.71;68.91;100963.41;98301;1172;89948;-62
2021/03/07 00:25:58;;;;;;;10.60;5.90;;;;;;;1.68;69.43;100958.31;98355;1172;82721;-61
2021/03/07 00:28:05;;;;;;;10.20;6.10;;;;;;;1.70;68.75;100951.05;98316;1172;69129;-63
2021/03/07 00:30:15;;;;;;;12.30;5.60;;;;;;;1.70;68.88;100951.05;98336;1166;86810;-63
2021/03/07 00:32:24;;;;;;;8.90;5.40;;;;;;;1.72;68.80;100954.45;98342;1172;75831;-63
2021/03/07 00:34:31;;;;;;;10.60;6.30;;;;;;;1.72;68.88;100956.27;98342;1171;89697;-64
2021/03/07 00:36:40;;;;;;;9.07;5.53;;;;;;;1.71;69.00;100959.88;98351;1168;83229;-63
2021/03/07 00:38:46;;;;;;;9.07;5.43;;;;;;;1.74;69.26;100941.01;98369;1172;69062;-62
2021/03/07 00:40:55;;;;;;;9.10;5.30;;;;;;;1.75;68.86;100948.89;98398;1169;85941;-63
2021/03/07 00:43:01;;;;;;;10.17;5.47;;;;;;;1.73;69.15;100940.16;98372;1171;75308;-63
2021/03/07 00:45:14;;;;;;;11.17;5.73;;;;;;;1.75;69.42;100938.24;98377;1172;89342;-64
2021/03/07 00:47:20;;;;;;;10.20;6.17;;;;;;;1.76;69.35;100929.27;98384;1167;82981;-62
2021/03/07 00:49:28;;;;;;;9.70;5.55;;;;;;;1.76;69.58;100931.92;98401;1169;69120;-62
2021/03/07 00:51:34;;;;;;;9.53;5.80;;;;;;;1.78;69.21;100943.33;98400;1172;85990;-76
2021/03/07 00:53:40;;;;;;;9.70;6.00;;;;;;;1.78;69.22;100938.00;98364;1167;74649;-75
2021/03/07 00:55:46;;;;;;;10.27;5.80;;;;;;;1.78;69.49;100924.69;98386;1168;89374;-61
2021/03/07 00:57:52;;;;;;;11.50;5.35;;;;;;;1.79;69.96;100915.71;98352;1172;83038;-63
2021/03/07 00:59:58;;;;;;;9.37;5.20;;;;;;;1.81;69.45;100928.92;98366;1172;66702;-62
2021/03/07 01:02:08;;;;;;;9.35;5.05;;;;;;;1.80;70.17;100913.91;98370;1171;86124;-75
2021/03/07 01:04:14;;;;;;;8.90;5.65;;;;;;;1.83;69.66;100915.47;98400;1170;75131;-76
2021/03/07 01:06:20;;;;;;;10.45;5.80;;;;;;;1.84;69.96;100907.34;98402;1169;88505;-63
2021/03/07 01:08:26;;;;;;;7.60;5.30;;;;;;;1.85;69.37;100911.72;98337;1169;82079;-63
2021/03/07 01:10:37;;;;;;;10.40;6.20;;;;;;;1.87;70.01;100907.11;98359;1172;68349;-75
2021/03/07 01:12:45;;;;;;;13.40;5.90;;;;;;;1.86;69.59;100902.77;98450;1172;86409;-74
2021/03/07 01:14:51;;;;;;;10.65;5.80;;;;;;;1.85;69.96;100900.20;98336;1172;75832;-75
2021/03/07 01:17:01;;;;;;;9.95;5.40;;;;;;;1.83;70.09;100892.35;98369;1171;89254;-64
2021/03/07 01:19:07;;;;;;;10.50;5.40;;;;;;;1.85;70.07;100893.07;98312;1170;81673;-64
2021/03/07 01:21:13;;;;;;;10.07;5.77;;;;;;;1.85;70.44;100890.41;98388;1167;69158;-76
2021/03/07 01:23:24;;;;;;;8.40;6.00;;;;;;;1.84;70.45;100882.55;98351;1171;87564;-76
2021/03/07 01:25:32;;;;;;;7.95;5.65;;;;;;;1.86;70.56;100876.13;98388;1172;75427;-61
2021/03/07 01:27:39;;;;;;;9.70;5.15;;;;;;;1.85;70.51;100873.57;98388;1167;88879;-62
2021/03/07 01:29:45;;;;;;;9.10;5.00;;;;;;;1.88;70.46;100863.53;98320;1171;82555;-60
2021/03/07 01:31:51;;;;;;;10.60;5.60;;;;;;;1.91;70.15;100860.63;98327;1172;69293;-76
2021/03/07 01:33:57;;;;;;;12.70;5.60;;;;;;;1.92;70.32;100856.15;98380;1168;86246;-76
2021/03/07 01:36:03;;;;;;;8.27;4.93;;;;;;;1.90;70.21;100848.27;98360;1172;75792;-73
2021/03/07 01:38:09;;;;;;;9.60;5.40;;;;;;;1.90;70.45;100839.42;98343;1172;88988;-75
2021/03/07 01:40:19;;;;;;;9.07;5.90;;;;;;;1.91;70.90;100836.65;98293;1171;81315;-74
2021/03/07 01:42:28;;;;;;;9.35;5.55;;;;;;;1.90;70.66;100834.09;98384;1171;66800;-63
2021/03/07 01:44:34;;;;;;;9.10;5.80;;;;;;;1.92;70.79;100838.36;98321;1171;87820;-62
2021/03/07 01:46:39;;;;;;;11.70;6.10;;;;;;;1.94;70.55;100832.89;98394;1166;74750;-74
2021/03/07 01:48:45;;;;;;;8.40;5.20;;;;;;;1.94;70.36;100825.75;98331;1172;88258;-74
2021/03/07 01:50:54;;;;;;;9.15;5.40;;;;;;;1.94;71.11;100820.42;98281;1171;82516;-63
2021/03/07 01:53:01;;;;;;;11.10;5.60;;;;;;;1.95;71.10;100818.61;98394;1168;69129;-61
2021/03/07 01:55:09;;;;;;;8.43;5.40;;;;;;;1.94;71.21;100807.10;98313;1172;87733;-63
2021/03/07 01:57:18;;;;;;;9.90;6.40;;;;;;;1.96;70.75;100812.29;98352;1172;75697;-63
2021/03/07 01:59:26;;;;;;;11.05;5.70;;;;;;;1.92;71.10;100801.06;98330;1172;88991;-62
2021/03/07 02:01:31;;;;;;;8.80;5.50;;;;;;;1.94;71.24;100796.45;98381;1171;81654;-63
2021/03/07 02:03:37;;;;;;;9.70;6.00;;;;;;;1.95;71.20;100797.30;98354;1169;69114;-63
2021/03/07 02:05:48;;;;;;;10.70;6.30;;;;;;;1.93;71.15;100793.89;98291;1168;87862;-63
2021/03/07 02:07:54;;;;;;;11.00;5.80;;;;;;;1.94;71.09;100803.58;98342;1171;75866;-62
2021/03/07 02:10:00;;;;;;;12.40;6.70;;;;;;;1.95;71.52;100810.62;98283;1171;89771;-64
2021/03/07 02:12:09;;;;;;;9.05;5.70;;;;;;;1.95;71.29;100800.78;98337;1171;83990;-75
2021/03/07 02:14:18;;;;;;;11.00;6.60;;;;;;;1.97;71.18;100803.34;98320;1171;69062;-75
2021/03/07 02:16:26;;;;;;;13.70;7.75;;;;;;;1.98;71.03;100805.86;98297;1166;86959;-74
2021/03/07 02:18:33;;;;;;;10.03;6.83;;;;;;;1.98;71.39;100810.38;98327;1170;75676;-74
2021/03/07 02:20:49;;;;;;;9.90;6.55;;;;;;;1.97;71.61;100806.00;98359;1170;88173;-73
2021/03/07 02:23:07;;;;;;;11.50;6.60;;;;;;;1.98;71.41;100794.39;98325;1167;83092;-74
2021/03/07 02:25:15;;;;;;;13.60;7.05;;;;;;;1.94;71.70;100792.92;98320;1172;69251;-75
2021/03/07 02:27:25;;;;;;;11.55;6.80;;;;;;;1.95;71.50;100783.98;98372;1171;86017;-62
2021/03/07 02:29:34;;;;;;;12.55;7.55;;;;;;;1.96;71.25;100797.16;98358;1170;75177;-64
2021/03/07 02:31:48;;;;;;;12.90;7.77;;;;;;;2.00;71.58;100784.45;98336;1172;89715;-63
2021/03/07 02:34:07;;;;;;;11.47;7.30;;;;;;;2.03;71.62;100781.53;98324;1170;82158;-63
2021/03/07 02:36:25;;;;;;;10.80;6.70;;;;;;;2.03;72.37;100782.38;98373;1171;69631;-76
2021/03/07 02:38:37;;;;;;;12.75;7.30;;;;;;;2.05;71.94;100784.91;98368;1170;85276;-76
2021/03/07 02:40:44;;;;;;;9.15;6.85;;;;;;;2.05;71.76;100774.25;98389;1167;75589;-75
2021/03/07 02:42:51;;;;;;;11.73;7.30;;;;;;;2.06;71.94;100771.45;98318;1171;90164;-74
2021/03/07 02:45:02;;;;;;;12.77;6.60;;;;;;;2.10;71.70;100772.05;98299;1172;81899;-74
2021/03/07 02:47:08;;;;;;;10.67;6.77;;;;;;;2.08;72.11;100764.20;98394;1166;69116;-75
2021/03/07 02:49:18;;;;;;;10.25;6.35;;;;;;;2.06;71.66;100765.30;98369;1172;85253;-75
2021/03/07 02:51:28;;;;;;;9.60;6.60;;;;;;;2.07;71.99;100756.31;98343;1170;75279;-62
2021/03/07 02:53:36;;;;;;;11.00;6.90;;;;;;;2.05;72.09;100758.27;98362;1171;88188;-62
2021/03/07 02:55:44;;;;;;;11.95;6.75;;;;;;;2.06;72.09;100746.64;98296;1171;82352;-62
2021/03/07 02:57:52;;;;;;;10.75;6.10;;;;;;;2.05;72.12;100747.61;98322;1170;69139;-62
2021/03/07 03:00:00;;;;;;;13.47;7.00;;;;;;;2.04;72.17;100752.08;98280;1172;86640;-64
2021/03/07 03:02:09;;;;;;;10.90;6.70;;;;;;;2.06;72.18;100747.47;98422;1155;74805;-64
2021/03/07 03:04:18;;;;;;;10.60;6.60;;;;;;;2.08;72.00;100747.36;98306;1169;89463;-63
2021/03/07 03:06:25;;;;;;;8.50;5.60;;;;;;;2.07;72.12;100748.31;98275;1171;82308;-64
2021/03/07 03:08:36;;;;;;;10.00;6.45;;;;;;;2.06;72.09;100747.47;98356;1167;69194;-63
2021/03/07 03:10:42;;;;;;;9.60;6.10;;;;;;;2.07;72.02;100745.66;98311;1171;86465;-63
2021/03/07 03:12:51;;;;;;;12.90;6.50;;;;;;;2.07;71.78;100734.99;98347;1166;75135;-70
2021/03/07 03:14:57;;;;;;;11.15;6.95;;;;;;;2.11;72.01;100736.45;98345;1166;89413;-71
2021/03/07 03:17:05;;;;;;;10.20;6.30;;;;;;;2.12;72.05;100738.12;98284;1170;83260;-72
2021/03/07 03:19:12;;;;;;;10.30;5.70;;;;;;;2.11;71.70;100742.63;98307;1172;69277;-72
2021/03/07 03:21:18;;;;;;;12.40;6.30;;;;;;;2.11;72.14;100733.78;98305;1172;86861;-71
2021/03/07 03:23:25;;;;;;;9.90;5.95;;;;;;;2.12;72.06;100727.45;98334;1172;75829;-72
2021/03/07 03:25:31;;;;;;;8.67;6.30;;;;;;;2.14;71.89;100714.88;98323;1172;90539;-72
2021/03/07 03:27:37;;;;;;;10.00;5.87;;;;;;;2.14;72.04;100728.20;98396;1172;81878;-64
2021/03/07 03:29:43;;;;;;;10.50;6.25;;;;;;;2.16;72.09;100712.92;98319;1170;69576;-63
2021/03/07 03:31:49;;;;;;;9.90;5.25;;;;;;;2.14;72.02;100713.03;98348;1172;86772;-70
2021/03/07 03:33:55;;;;;;;9.95;6.00;;;;;;;2.10;71.92;100703.63;98353;1169;74949;-70
2021/03/07 03:36:06;;;;;;;11.67;6.57;;;;;;;2.12;72.17;100708.81;98365;1170;88974;-71
2021/03/07 03:38:15;;;;;;;9.05;5.70;;;;;;;2.12;72.05;100701.66;98327;1172;81740;-64
2021/03/07 03:40:25;;;;;;;9.75;6.20;;;;;;;2.12;71.87;100700.81;98350;1170;69154;-63
2021/03/07 03:42:32;;;;;;;9.10;6.00;;;;;;;2.14;71.81;100704.22;98393;1167;85787;-63
2021/03/07 03:44:41;;;;;;;10.10;5.40;;;;;;;2.13;71.81;100706.03;98358;1172;75498;-63
2021/03/07 03:46:55;;;;;;;10.40;5.90;;;;;;;2.13;71.95;100702.52;98383;1170;89669;-64
2021/03/07 03:49:09;;;;;;;9.05;4.80;;;;;;;2.12;71.70;100695.48;98312;1167;82470;-62
2021/03/07 03:51:17;;;;;;;10.10;5.15;;;;;;;2.11;72.06;100707.14;98344;1166;69123;-67
2021/03/07 03:53:25;;;;;;;9.65;5.30;;;;;;;2.11;71.85;100700.00;98379;1172;88368;-72
2021/03/07 03:55:34;;;;;;;9.50;5.20;;;;;;;2.13;71.71;100691.86;98321;1170;75197;-74
2021/03/07 03:57:42;;;;;;;9.40;5.17;;;;;;;2.15;71.90;100695.23;98374;1167;88632;-74
2021/03/07 03:59:51;;;;;;;8.70;5.00;;;;;;;2.17;72.05;100688.80;98317;1167;82889;-75
2021/03/07 04:01:58;;;;;;;8.35;4.95;;;;;;;2.19;71.94;100691.34;98327;1172;68930;-75
2021/03/07 04:04:10;;;;;;;12.10;5.30;;;;;;;2.15;72.06;100679.24;98308;1172;85983;-78
2021/03/07 04:06:18;;;;;;;9.43;5.30;;;;;;;2.16;72.32;100683.61;98336;1172;75708;-74
2021/03/07 04:08:24;;;;;;;7.85;5.15;;;;;;;2.16;72.16;100680.94;98367;1171;88541;-76
2021/03/07 04:10:31;;;;;;;8.05;5.20;;;;;;;2.14;72.07;100680.23;98270;1171;83654;-77
2021/03/07 04:12:39;;;;;;;8.60;5.53;;;;;;;2.12;72.36;100671.50;98317;1172;68362;-63
2021/03/07 04:14:47;;;;;;;10.85;5.75;;;;;;;2.12;72.41;100676.83;98290;1172;86230;-63
2021/03/07 04:16:54;;;;;;;8.03;5.53;;;;;;;2.10;72.27;100674.31;98331;1170;75674;-63
2021/03/07 04:19:02;;;;;;;10.60;5.90;;;;;;;2.10;72.58;100665.47;98309;1167;89811;-63
2021/03/07 04:21:13;;;;;;;8.25;5.45;;;;;;;2.12;72.57;100659.03;98294;1172;82444;-63
2021/03/07 04:23:20;;;;;;;8.90;5.35;;;;;;;2.10;72.57;100666.31;98354;1168;69619;-63
2021/03/07 04:25:26;;;;;;;10.70;5.83;;;;;;;2.15;72.53;100656.11;98318;1172;85911;-62
2021/03/07 04:27:33;;;;;;;9.10;5.10;;;;;;;2.14;72.26;100653.59;98354;1171;75321;-63
2021/03/07 04:29:39;;;;;;;8.95;5.60;;;;;;;2.14;72.30;100654.41;98393;1172;89088;-63
2021/03/07 04:31:46;;;;;;;8.50;4.97;;;;;;;2.14;72.43;100656.25;98343;1171;82811;-75
2021/03/07 04:33:52;;;;;;;10.17;5.37;;;;;;;2.12;72.34;100648.38;98375;1168;69135;-75
2021/03/07 04:35:58;;;;;;;9.75;5.40;;;;;;;2.16;72.43;100656.96;98331;1171;87111;-75
2021/03/07 04:38:07;;;;;;;6.85;5.05;;;;;;;2.18;72.70;100639.02;98359;1170;75317;-75
2021/03/07 04:40:16;;;;;;;8.20;5.93;;;;;;;2.17;72.41;100632.02;98314;1171;88493;-76
2021/03/07 04:42:24;;;;;;;9.77;5.30;;;;;;;2.16;72.55;100635.64;98321;1171;81466;-76
2021/03/07 04:44:30;;;;;;;8.03;5.47;;;;;;;2.18;72.02;100631.02;98302;1172;69257;-76
2021/03/07 04:46:36;;;;;;;9.80;5.10;;;;;;;2.16;72.50;100638.31;98322;1167;86111;-63
2021/03/07 04:48:42;;;;;;;9.05;5.50;;;;;;;2.18;72.71;100641.68;98330;1171;75102;-62
2021/03/07 04:50:48;;;;;;;8.87;5.33;;;;;;;2.20;72.21;100640.57;98285;1168;90174;-63
2021/03/07 04:52:54;;;;;;;8.40;5.50;;;;;;;2.21;72.37;100647.60;98276;1170;82762;-75
2021/03/07 04:55:04;;;;;;;8.90;5.00;;;;;;;2.20;72.33;100640.57;98324;1170;69621;-76
2021/03/07 04:57:15;;;;;;;9.35;5.45;;;;;;;2.21;72.26;100636.09;98304;1166;86450;-62
2021/03/07 04:59:24;;;;;;;8.30;4.70;;;;;;;2.23;72.35;100629.66;98333;1172;75861;-62
2021/03/07 05:01:30;;;;;;;7.20;4.85;;;;;;;2.22;72.40;100632.47;98333;1172;89824;-74
2021/03/07 05:03:39;;;;;;;8.30;5.10;;;;;;;2.22;72.02;100630.65;98349;1171;81801;-74
2021/03/07 05:05:49;;;;;;;8.10;5.25;;;;;;;2.23;72.31;100629.66;98431;1155;69209;-75
2021/03/07 05:07:55;;;;;;;9.10;5.70;;;;;;;2.21;72.46;100623.62;98094;1174;86666;-76
2021/03/07 05:10:02;;;;;;;8.63;5.23;;;;;;;2.20;72.14;100623.73;98344;1168;74503;-76
2021/03/07 05:12:09;;;;;;;8.70;5.27;;;;;;;2.21;72.37;100620.95;98110;1174;89479;-62
2021/03/07 05:14:15;;;;;;;7.23;4.77;;;;;;;2.21;72.18;100625.44;98336;1171;83150;-63
2021/03/07 05:16:24;;;;;;;8.95;4.90;;;;;;;2.21;72.11;100622.77;98331;1166;69295;-61
2021/03/07 05:18:30;;;;;;;8.60;5.23;;;;;;;2.19;72.57;100617.58;98293;1171;86481;-64
2021/03/07 05:20:36;;;;;;;8.40;4.70;;;;;;;2.19;72.43;100622.91;98073;1168;74801;-74
2021/03/07 05:22:42;;;;;;;8.10;5.00;;;;;;;2.17;72.35;100608.85;98303;1170;90865;-75
2021/03/07 05:24:48;;;;;;;9.80;5.30;;;;;;;2.21;72.17;100612.11;98294;1168;82444;-76
2021/03/07 05:26:53;;;;;;;8.23;4.57;;;;;;;2.21;71.98;100612.11;98355;1167;69125;-63
2021/03/07 05:29:00;;;;;;;8.60;4.77;;;;;;;2.21;72.16;100610.30;98338;1171;85663;-62
2021/03/07 05:31:06;;;;;;;7.25;4.50;;;;;;;2.20;72.12;100611.26;98304;1167;75565;-77
2021/03/07 05:33:15;;;;;;;11.55;5.20;;;;;;;2.22;72.67;100611.14;98301;1168;89289;-76
2021/03/07 05:35:22;;;;;;;6.27;4.63;;;;;;;2.22;71.98;100611.14;98341;1168;82931;-66
2021/03/07 05:37:28;;;;;;;9.35;5.30;;;;;;;2.26;72.33;100612.55;98394;1168;69388;-63
2021/03/07 05:39:34;;;;;;;7.55;4.65;;;;;;;2.28;72.04;100613.29;98341;1171;86471;-62
2021/03/07 05:41:40;;;;;;;7.67;4.57;;;;;;;2.29;72.13;100607.81;98323;1171;74312;-61
2021/03/07 05:43:48;;;;;;;6.30;4.60;;;;;;;2.28;72.13;100610.63;98345;1171;88567;-62
2021/03/07 05:45:54;;;;;;;5.70;4.30;;;;;;;2.30;72.02;100612.18;98371;1172;81648;-62
2021/03/07 05:48:00;;;;;;;7.00;4.40;;;;;;;2.28;71.82;100606.11;98409;1167;69097;-62
2021/03/07 05:50:10;;;;;;;7.63;4.70;;;;;;;2.28;71.58;100613.29;98362;1167;85859;-62
2021/03/07 05:52:16;;;;;;;5.20;4.15;;;;;;;2.30;71.76;100603.34;98372;1172;75570;-62
2021/03/07 05:54:23;;;;;;;6.00;4.05;;;;;;;2.34;71.72;100615.41;98328;1171;89637;-62
2021/03/07 05:56:32;;;;;;;7.80;4.40;;;;;;;2.36;71.63;100598.30;98347;1170;82863;-75
2021/03/07 05:58:40;;;;;;;6.87;4.43;;;;;;;2.37;71.16;100589.34;98306;1171;69636;-75
2021/03/07 06:00:47;;;;;;;6.60;4.75;;;;;;;2.38;71.35;100592.86;98298;1167;86790;-76
2021/03/07 06:02:53;;;;;;;5.00;3.80;;;;;;;2.35;70.93;100601.11;98331;1167;75581;-73
2021/03/07 06:05:02;;;;;;;6.60;4.30;;;;;;;2.38;71.16;100604.37;98354;1171;89278;-75
2021/03/07 06:07:08;;;;;;;6.60;4.10;;;;;;;2.39;71.22;100602.52;98338;1166;83400;-63
2021/03/07 06:09:23;;;;;;;8.00;4.10;;;;;;;2.39;70.84;100597.19;98322;1171;69177;-63
2021/03/07 06:11:35;;;;;;;5.40;3.70;;;;;;;2.40;70.79;100612.22;98307;1171;85303;-77
2021/03/07 06:13:43;;;;;;;6.00;4.40;;;;;;;2.41;70.54;100603.25;98350;1171;75576;-77
2021/03/07 06:15:51;;;;;;;5.05;3.70;;;;;;;2.42;70.69;100602.26;98302;1171;89296;-62
2021/03/07 06:17:58;;;;;;;5.95;3.45;;;;;;;2.43;70.70;100603.96;98312;1171;82062;-62
2021/03/07 06:20:12;;;;;;;5.33;3.90;;;;;;;2.45;70.36;100590.48;98298;1171;69401;-62
2021/03/07 06:22:23;;;;;;;7.20;4.40;;;;;;;2.44;70.69;100587.00;98309;1171;85970;-74
2021/03/07 06:24:37;;;;;;;6.50;4.30;;;;;;;2.44;70.58;100588.81;98316;1172;76100;-75
2021/03/07 06:27:07;;;;;;;5.90;4.30;;;;;;;2.45;70.62;100587.81;98356;1171;89264;-63
2021/03/07 06:29:16;;;;;;;6.15;4.15;;;;;;;2.45;70.80;100586.00;98276;1168;82521;-63
2021/03/07 06:31:32;;;;;;;6.30;3.97;;;;;;;2.45;70.84;100604.66;98614;1156;69267;-63
2021/03/07 06:33:39;;;;;;;5.30;3.60;;;;;;;2.48;70.50;100588.41;98326;1172;86057;-63
2021/03/07 06:35:45;;;;;;;6.77;3.83;;;;;;;2.48;70.67;100592.89;98298;1170;76144;-63
2021/03/07 06:38:00;;;;;;;4.20;3.40;;;;;;;2.49;69.96;100582.11;98314;1166;90593;-63
2021/03/07 06:40:28;;;;;;;4.60;3.40;;;;;;;2.49;70.07;100579.44;98297;1171;81815;-63
2021/03/07 06:42:44;;;;;;;5.80;3.90;;;;;;;2.53;69.96;100596.84;98329;1166;66709;-75
2021/03/07 06:44:59;;;;;;;7.00;3.80;;;;;;;2.54;69.97;100598.55;98315;1172;87342;-75
2021/03/07 06:47:14;;;;;;;6.77;3.97;;;;;;;2.57;69.83;100597.43;98389;1170;74499;-76
2021/03/07 06:49:27;;;;;;;4.80;3.40;;;;;;;2.58;69.84;100586.65;98341;1172;89841;-76
2021/03/07 06:51:35;;;;;;;5.25;2.90;;;;;;;2.57;69.60;100589.43;98346;1167;82084;-73
2021/03/07 06:53:45;;;;;;;4.87;3.20;;;;;;;2.59;69.46;100587.47;98432;1155;69122;-76
2021/03/07 06:55:54;;;;;;;5.20;3.35;;;;;;;2.59;69.38;100580.31;98219;1172;86655;-63
2021/03/07 06:58:17;;;;;;;6.45;4.05;;;;;;;2.60;69.19;100581.17;98424;1155;75691;-64
2021/03/07 07:00:40;;;;;;;4.68;3.58;;;;;;;2.59;68.98;100585.65;98323;1172;89123;-63
2021/03/07 07:03:08;;;;;;;6.85;3.45;;;;;;;2.62;68.54;100573.88;98321;1168;81876;-75
2021/03/07 07:05:39;;;;;;;5.10;2.95;;;;;;;2.61;69.26;100581.02;98368;1167;69120;-76
2021/03/07 07:07:52;;;;;;;6.80;3.50;;;;;;;2.63;68.93;100567.56;98336;1168;85823;-74
2021/03/07 07:10:05;;;;;;;3.90;3.15;;;;;;;2.65;69.17;100573.60;98329;1168;74957;-74
2021/03/07 07:12:22;;;;;;;6.20;3.47;;;;;;;2.65;69.10;100574.45;98424;1156;89681;-62
2021/03/07 07:14:38;;;;;;;6.05;3.90;;;;;;;2.64;69.30;100580.75;98295;1172;82365;-64
2021/03/07 07:16:44;;;;;;;4.60;3.10;;;;;;;2.62;69.04;100566.72;98306;1167;69097;-62
2021/03/07 07:18:53;;;;;;;6.60;3.60;;;;;;;2.65;69.24;100574.45;98044;1174;86540;-62
2021/03/07 07:20:59;;;;;;;5.55;3.25;;;;;;;2.63;69.34;100575.56;98085;1168;75918;-63
2021/03/07 07:23:06;;;;;;;5.70;4.10;;;;;;;2.63;69.28;100573.75;98084;1175;90214;-63
2021/03/07 07:25:14;;;;;;;6.73;3.70;;;;;;;2.63;69.50;100570.23;98059;1168;82946;-62
2021/03/07 07:27:23;;;;;;;6.00;3.80;;;;;;;2.65;69.13;100571.78;98097;1175;69260;-63
2021/03/07 07:29:29;;;;;;;6.30;4.00;;;;;;;2.64;69.13;100563.91;98112;1175;86010;-61
2021/03/07 07:31:45;;;;;;;5.80;3.50;;;;;;;2.63;69.12;100568.42;98095;1173;75368;-75
2021/03/07 07:33:56;;;;;;;5.40;4.10;;;;;;;2.65;68.72;100565.60;98113;1175;89370;-74
2021/03/07 07:36:06;;;;;;;6.00;3.30;;;;;;;2.66;68.94;100552.16;98029;1171;82787;-74
2021/03/07 07:38:14;;;;;;;5.00;3.30;;;;;;;2.68;68.79;100562.67;98100;1167;69152;-76
2021/03/07 07:40:33;;;;;;;8.00;3.80;;;;;;;2.69;68.53;100551.85;98056;1173;86056;-75
2021/03/07 07:42:39;;;;;;;6.05;3.70;;;;;;;2.71;68.39;100552.58;98103;1172;74453;-75
2021/03/07 07:44:45;;;;;;;5.10;3.40;;;;;;;2.69;68.31;100551.03;98082;1173;88172;-74
2021/03/07 07:47:01;;;;;;;4.97;3.20;;;;;;;2.67;68.42;100543.15;98048;1174;81259;-74
2021/03/07 07:49:07;;;;;;;6.17;2.80;;;;;;;2.69;68.24;100538.52;98079;1171;69187;-72
2021/03/07 07:51:40;;;;;;;5.60;3.70;;;;;;;2.74;68.15;100541.64;98051;1174;87293;-61
2021/03/07 07:53:46;;;;;;;3.25;2.60;;;;;;;2.75;68.12;100534.46;98076;1173;74950;-61
2021/03/07 07:55:54;;;;;;;4.65;3.00;;;;;;;2.74;68.14;100538.98;98074;1174;90404;-63
2021/03/07 07:58:03;;;;;;;4.95;3.25;;;;;;;2.76;67.81;100531.67;98083;1167;81608;-62
2021/03/07 08:00:15;;;;;;;4.70;2.80;;;;;;;2.77;67.96;100538.71;98079;1168;69260;-62
2021/03/07 08:02:59;;;;;;;5.65;2.70;;;;;;;2.79;68.17;100534.08;98046;1175;86299;-73
2021/03/07 08:05:51;;;;;;;4.93;2.87;;;;;;;2.81;67.35;100529.44;98097;1169;74537;-75
2021/03/07 08:08:02;;;;;;;5.80;2.80;;;;;;;2.83;67.26;100531.98;97963;1174;88537;-62
2021/03/07 08:10:47;;;;;;;5.40;3.00;;;;;;;2.82;67.00;100541.80;98063;1168;82354;-62
2021/03/07 08:12:54;;;;;;;5.20;2.73;;;;;;;2.81;67.06;100529.44;98102;1168;69203;-75
2021/03/07 08:15:00;;;;;;;3.90;2.60;;;;;;;2.85;67.18;100536.20;98075;1175;86150;-73
2021/03/07 08:17:09;;;;;;;6.23;3.53;;;;;;;2.85;66.96;100514.86;98121;1171;76912;-62
2021/03/07 08:19:16;;;;;;;6.15;3.00;;;;;;;2.84;66.98;100542.51;98081;1168;89053;-75
2021/03/07 08:21:27;;;;;;;5.20;3.10;;;;;;;2.85;66.63;100538.88;98082;1175;82571;-74
2021/03/07 08:24:08;;;;;;;3.90;3.10;;;;;;;2.82;66.70;100535.63;98086;1170;69147;-75
2021/03/07 08:26:19;;;;;;;5.05;3.30;;;;;;;2.81;66.11;100523.25;98084;1173;85622;-64
2021/03/07 08:28:42;;;;;;;6.30;2.90;;;;;;;2.76;66.31;100531.67;98088;1175;74418;-64
2021/03/07 08:30:50;;;;;;;6.05;3.30;;;;;;;2.79;66.83;100536.74;98035;1175;90973;-67
2021/03/07 08:32:57;;;;;;;5.20;3.00;;;;;;;2.78;66.22;100539.53;98029;1174;82408;-75
2021/03/07 08:35:20;;;;;;;6.20;2.65;;;;;;;2.69;65.91;100532.36;98110;1168;69161;-74
2021/03/07 08:37:27;;;;;;;5.30;3.10;;;;;;;2.67;66.51;100532.48;98068;1175;86293;-62
2021/03/07 08:39:36;;;;;;;3.60;2.80;;;;;;;2.67;66.08;100527.15;98081;1175;75103;-63
2021/03/07 08:42:07;;;;;;;7.55;2.70;;;;;;;2.66;66.40;100521.97;98067;1175;89628;-62
2021/03/07 08:44:16;;;;;;;3.83;2.73;;;;;;;2.67;66.30;100520.97;98217;1157;81512;-74
2021/03/07 08:46:25;;;;;;;6.50;3.10;;;;;;;2.68;66.43;100528.84;98313;1167;69154;-74
2021/03/07 08:48:39;;;;;;;5.60;2.70;;;;;;;2.71;66.49;100527.73;98326;1171;85983;-63
2021/03/07 08:50:49;;;;;;;6.00;2.93;;;;;;;2.70;65.90;100526.88;98085;1172;74701;-76
2021/03/07 08:52:56;;;;;;;4.73;2.50;;;;;;;2.61;65.84;100527.69;98051;1171;89103;-75
2021/03/07 08:55:04;;;;;;;4.80;2.60;;;;;;;2.65;65.87;100537.12;98078;1171;82993;-75
2021/03/07 08:57:12;;;;;;;3.90;2.80;;;;;;;2.66;65.87;100516.63;98085;1175;69282;-73
2021/03/07 08:59:23;;;;;;;5.20;2.90;;;;;;;2.69;66.04;100533.19;98071;1175;86524;-61
2021/03/07 09:01:30;;;;;;;5.00;2.90;;;;;;;2.65;65.96;100529.11;98108;1169;74802;-62
2021/03/07 09:03:37;;;;;;;4.73;2.60;;;;;;;2.64;65.96;100530.08;98091;1175;89650;-68
2021/03/07 09:05:45;;;;;;;5.05;3.20;;;;;;;2.65;65.76;100510.45;98110;1171;81718;-62
2021/03/07 09:08:02;;;;;;;5.20;2.70;;;;;;;2.66;65.81;100516.63;98605;1156;67535;-62
2021/03/07 09:10:11;;;;;;;5.30;2.60;;;;;;;2.69;65.51;100525.18;99006;1155;85814;-63
2021/03/07 09:12:17;;;;;;;4.80;2.40;;;;;;;2.70;65.74;100512.70;98338;1167;76056;-62
2021/03/07 09:14:35;;;;;;;5.40;2.90;;;;;;;2.70;65.35;100502.88;98604;1155;89904;-61
2021/03/07 09:16:45;;;;;;;5.20;2.70;;;;;;;2.74;65.55;100509.64;98271;1168;84969;-61
2021/03/07 09:18:51;;;;;;;5.70;3.00;;;;;;;2.77;65.70;100512.04;98349;1171;69122;-62
2021/03/07 09:21:00;;;;;;;5.60;2.97;;;;;;;2.82;65.74;100504.46;98112;1174;86544;-76
2021/03/07 09:23:26;;;;;;;5.20;3.10;;;;;;;2.77;65.42;100504.03;98066;1167;75193;-76
2021/03/07 09:25:32;;;;;;;5.63;2.90;;;;;;;2.77;65.69;100500.52;98094;1171;88992;-76
2021/03/07 09:27:41;;;;;;;5.10;3.20;;;;;;;2.77;65.49;100498.70;98048;1171;81613;-75
2021/03/07 09:30:16;;;;;;;5.30;3.10;;;;;;;2.82;65.72;100501.80;98072;1174;66711;-76
2021/03/07 09:32:35;;;;;;;5.73;2.97;;;;;;;2.79;65.22;100494.06;98110;1174;86317;-75
2021/03/07 09:34:41;;;;;;;7.20;3.40;;;;;;;2.85;65.59;100506.01;98144;1171;75669;-61
2021/03/07 09:36:47;;;;;;;5.33;3.30;;;;;;;2.84;65.38;100493.64;98070;1174;90720;-63
2021/03/07 09:38:57;;;;;;;7.10;3.50;;;;;;;2.81;65.41;100496.58;98104;1174;82216;-61
2021/03/07 09:41:03;;;;;;;6.10;3.50;;;;;;;2.84;65.56;100499.82;98069;1171;68489;-63
2021/03/07 09:43:13;;;;;;;6.70;3.70;;;;;;;2.80;64.76;100501.06;98101;1171;86139;-62
2021/03/07 09:45:23;;;;;;;6.83;3.33;;;;;;;2.76;64.80;100491.67;98106;1175;75624;-76
2021/03/07 09:47:29;;;;;;;5.85;3.10;;;;;;;2.79;65.27;100478.06;98097;1168;89125;-74
2021/03/07 09:49:35;;;;;;;5.20;3.40;;;;;;;2.83;65.27;100490.13;98071;1168;82572;-62
2021/03/07 09:51:43;;;;;;;6.55;3.35;;;;;;;2.84;65.23;100491.82;98083;1168;69247;-62
2021/03/07 09:53:50;;;;;;;10.00;3.40;;;;;;;2.84;64.83;100489.16;98077;1170;85492;-63
2021/03/07 09:55:57;;;;;;;7.27;3.40;;;;;;;2.83;65.18;100494.64;98102;1174;75185;-63
2021/03/07 09:58:08;;;;;;;8.40;3.95;;;;;;;2.85;65.16;100488.19;98076;1174;90485;-62
2021/03/07 10:00:38;;;;;;;5.30;2.90;;;;;;;2.83;65.28;100484.78;98083;1174;83013;-78
2021/03/07 10:03:01;;;;;;;9.65;3.50;;;;;;;2.81;65.19;100486.75;98085;1174;69181;-76
2021/03/07 10:05:19;;;;;;;6.43;3.63;;;;;;;2.82;65.36;100477.78;98079;1167;86458;-62
2021/03/07 10:07:26;;;;;;;9.73;3.90;;;;;;;2.87;65.34;100480.03;98115;1167;74416;-63
2021/03/07 10:09:32;;;;;;;9.00;3.70;;;;;;;2.89;65.31;100478.91;98090;1168;89115;-75